createdAt,value
2018-08-25T00:23:56.372Z,76.70
2018-08-25T00:52:44.063Z,77.50
2018-08-25T01:52:56.866Z,77.30
2018-08-25T02:24:13.859Z,80.40
2018-08-25T02:55:30.039Z,93.40
2018-08-25T03:23:57.992Z,98.10
2018-08-25T03:55:16.217Z,99.10
2018-08-25T04:55:17.920Z,98.10
2018-08-25T05:23:44.459Z,99.00
2018-08-25T05:55:01.214Z,97.20
2018-08-25T06:26:19.014Z,96.70
2018-08-25T06:28:50.326Z,95.90
2018-08-25T06:31:20.853Z,95.30
2018-08-25T06:36:50.980Z,94.30
2018-08-25T06:39:21.850Z,94.40
2018-08-25T06:44:33.771Z,94.30
2018-08-25T06:47:04.614Z,93.90
2018-08-25T06:52:27.944Z,93.60
2018-08-25T06:54:58.393Z,93.50
2018-08-25T06:57:29.063Z,93.40
2018-08-25T06:59:59.388Z,93.40
2018-08-25T07:02:29.257Z,93.40
2018-08-25T07:05:00.031Z,92.80
2018-08-25T07:07:30.898Z,93.00
2018-08-25T07:10:01.535Z,93.10
2018-08-25T07:12:32.388Z,94.10
2018-08-25T07:15:03.530Z,94.30
2018-08-25T07:17:34.874Z,93.80
2018-08-25T07:20:17.902Z,93.30
2018-08-25T07:23:04.087Z,92.60
2018-08-25T07:25:35.671Z,91.40
2018-08-25T07:28:06.531Z,90.80
2018-08-25T07:30:37.169Z,90.30
2018-08-25T07:33:08.139Z,88.70
2018-08-25T07:35:38.919Z,89.80
2018-08-25T07:38:09.684Z,90.40
2018-08-25T07:40:40.356Z,89.90
2018-08-25T07:43:11.438Z,90.20
2018-08-25T07:45:42.528Z,89.20
2018-08-25T07:48:13.838Z,88.90
2018-08-25T07:50:46.153Z,88.00
2018-08-25T07:53:16.545Z,88.40
2018-08-25T07:55:47.289Z,88.20
2018-08-25T07:58:18.523Z,86.20
2018-08-25T08:00:49.816Z,85.60
2018-08-25T08:03:20.842Z,86.50
2018-08-25T08:05:52.406Z,85.90
2018-08-25T08:08:23.408Z,85.60
2018-08-25T08:10:58.533Z,86.00
2018-08-25T08:13:28.945Z,85.30
2018-08-25T08:15:59.688Z,83.30
2018-08-25T08:18:30.038Z,83.80
2018-08-25T08:21:00.960Z,83.10
2018-08-25T08:23:37.752Z,83.10
2018-08-25T08:26:07.636Z,83.00
2018-08-25T08:28:37.888Z,83.50
2018-08-25T08:31:08.678Z,82.80
2018-08-25T08:33:43.469Z,82.40
2018-08-25T08:36:13.810Z,81.80
2018-08-25T08:38:44.494Z,82.60
2018-08-25T08:41:14.885Z,82.80
2018-08-25T08:43:45.585Z,82.00
2018-08-25T08:46:19.964Z,81.20
2018-08-25T08:48:50.563Z,80.70
2018-08-25T08:51:21.771Z,80.00
2018-08-25T08:53:52.405Z,79.50
2018-08-25T08:56:23.754Z,79.30
2018-08-25T09:24:52.263Z,76.70
2018-08-25T09:56:14.793Z,72.80
2018-08-25T10:24:51.544Z,71.10
2018-08-25T10:56:12.789Z,68.30
2018-08-25T11:24:58.207Z,66.50
2018-08-25T11:56:16.468Z,66.60
2018-08-25T12:27:37.171Z,61.00
2018-08-25T12:56:02.924Z,67.40
2018-08-25T13:27:28.095Z,63.00
2018-08-25T13:55:56.035Z,67.30
2018-08-25T14:09:45.546Z,74.60
2018-08-25T14:12:14.894Z,88.20
2018-08-25T14:14:55.513Z,92.30
2018-08-25T14:17:25.690Z,88.30
2018-08-25T14:19:54.830Z,87.50
2018-08-25T14:22:24.057Z,81.50
2018-08-25T14:24:54.523Z,81.00
